Time;durP1;ratioP1;P1;durP2;ratioP2;P2;SDS_P1;SDS_P2;PMS_P1;PMS_P2;Temp;Humidity;BMP_temperature;BMP_pressure;BME280_temperature;BME280_humidity;BME280_pressure;Samples;Min_cycle;Max_cycle;Signal;HPM_P1;HPM_P2
2021/01/16 00:03:15;;;;;;;9.53;8.53;;;;;;;5.44;51.46;98803.72;8333443;28;20208;-69
2021/01/16 00:07:17;;;;;;;8.93;8.03;;;;;;;4.89;51.75;98804.22;8333936;28;20554;-70
2021/01/16 00:11:19;;;;;;;9.47;8.43;;;;;;;4.45;52.58;98805.41;8332579;28;20215;-70
2021/01/16 00:15:21;;;;;;;9.27;8.47;;;;;;;4.29;52.53;98800.38;8333466;28;20212;-70
2021/01/16 00:19:23;;;;;;;9.10;8.27;;;;;;;4.19;52.89;98798.72;8333058;28;20220;-69
2021/01/16 00:23:26;;;;;;;9.00;8.10;;;;;;;4.16;52.09;98803.88;8333573;28;20213;-70
2021/01/16 00:27:28;;;;;;;9.53;8.53;;;;;;;3.97;52.97;98802.25;8333532;28;20682;-69
2021/01/16 00:31:30;;;;;;;9.47;8.47;;;;;;;4.00;52.99;98799.66;8333414;28;20243;-70
2021/01/16 00:35:33;;;;;;;9.10;8.20;;;;;;;3.83;53.31;98802.31;8333158;28;20613;-70
2021/01/16 00:39:34;;;;;;;9.30;8.40;;;;;;;3.75;54.02;98799.78;8332461;28;20236;-70
2021/01/16 00:43:37;;;;;;;9.63;8.27;;;;;;;3.74;54.03;98798.06;8333025;28;20204;-70
2021/01/16 00:47:40;;;;;;;9.57;8.67;;;;;;;3.71;53.69;98801.50;8332177;28;20262;-69
2021/01/16 00:51:47;;;;;;;9.23;8.33;;;;;;;3.75;53.48;98799.78;8332065;28;20200;-70
2021/01/16 00:55:49;;;;;;;10.27;9.17;;;;;;;3.72;53.51;98794.66;8332058;28;20679;-70
2021/01/16 00:59:52;;;;;;;10.97;8.87;;;;;;;3.64;54.21;98801.53;8332036;28;20228;-70
2021/01/16 01:03:53;;;;;;;11.07;9.93;;;;;;;3.59;53.79;98798.97;8331789;28;20207;-70
2021/01/16 01:07:55;;;;;;;11.73;10.07;;;;;;;3.60;54.52;98795.56;8331811;28;20200;-70
2021/01/16 01:11:57;;;;;;;11.97;10.77;;;;;;;3.53;54.96;98793.88;8331594;28;20247;-71
2021/01/16 01:15:59;;;;;;;12.13;10.70;;;;;;;3.65;54.52;98788.69;8331348;28;20205;-71
2021/01/16 01:20:01;;;;;;;12.23;10.97;;;;;;;3.60;54.64;98794.69;8331686;28;20235;-70
2021/01/16 01:24:04;;;;;;;11.87;10.63;;;;;;;3.58;54.86;98792.16;8331385;28;20660;-69
2021/01/16 01:28:05;;;;;;;13.97;11.13;;;;;;;3.60;54.92;98799.81;8331052;28;20656;-69
2021/01/16 01:32:08;;;;;;;12.23;10.97;;;;;;;3.60;54.89;98792.13;8331428;28;20240;-70
2021/01/16 01:36:10;;;;;;;13.20;11.43;;;;;;;3.58;54.87;98786.16;8330707;28;20236;-70
2021/01/16 01:40:16;;;;;;;12.87;11.07;;;;;;;3.57;54.99;98787.88;8330543;28;20224;-70
2021/01/16 01:44:18;;;;;;;12.07;10.80;;;;;;;3.52;54.72;98787.03;8330706;28;20201;-70
2021/01/16 01:48:20;;;;;;;12.00;10.77;;;;;;;3.55;54.72;98778.50;8330713;28;20205;-70
2021/01/16 01:52:22;;;;;;;13.33;11.93;;;;;;;3.55;54.89;98771.66;8330618;28;20208;-70
2021/01/16 01:56:25;;;;;;;12.90;11.60;;;;;;;3.50;55.20;98775.94;8330848;28;20200;-70
2021/01/16 02:00:27;;;;;;;13.70;12.20;;;;;;;3.54;55.27;98775.06;8331138;28;20747;-70
2021/01/16 02:04:31;;;;;;;14.10;12.70;;;;;;;3.49;55.14;98769.97;8330329;28;20235;-71
2021/01/16 02:08:35;;;;;;;13.63;12.23;;;;;;;3.46;55.47;98772.53;8330342;28;20197;-70
2021/01/16 02:12:38;;;;;;;14.33;12.83;;;;;;;3.53;55.15;98773.38;8330244;28;20265;-71
2021/01/16 02:16:44;;;;;;;14.83;12.87;;;;;;;3.48;55.48;98763.16;8330334;28;20204;-71
2021/01/16 02:20:47;;;;;;;14.33;12.90;;;;;;;3.55;55.22;98770.81;8329481;28;20232;-70
2021/01/16 02:25:12;;;;;;;14.23;12.70;;;;;;;3.48;55.36;98773.41;8328704;28;20208;-70
2021/01/16 02:29:16;;;;;;;14.87;12.67;;;;;;;3.44;55.23;98769.13;8329402;28;20204;-69
2021/01/16 02:33:20;;;;;;;14.03;12.63;;;;;;;3.47;54.82;98768.28;8335151;28;20239;-69
2021/01/16 02:37:49;;;;;;;14.37;12.60;;;;;;;3.42;54.82;98781.09;8336919;28;20200;-69
2021/01/16 02:41:54;;;;;;;14.37;12.97;;;;;;;3.40;55.22;98771.72;8336780;28;20227;-69
2021/01/16 02:46:03;;;;;;;13.93;12.47;;;;;;;3.31;55.60;98776.00;8336266;28;20197;-69
2021/01/16 02:50:08;;;;;;;14.70;12.60;;;;;;;3.43;54.72;98774.28;8336864;28;20201;-69
2021/01/16 02:54:11;;;;;;;14.57;12.53;;;;;;;3.36;54.85;98775.16;8336230;28;20560;-69
2021/01/16 02:58:13;;;;;;;14.07;12.60;;;;;;;3.38;55.30;98779.41;8336179;28;20208;-69
2021/01/16 03:02:17;;;;;;;13.30;11.87;;;;;;;3.36;54.91;98775.16;8335884;28;20232;-69
2021/01/16 03:06:19;;;;;;;14.43;13.00;;;;;;;3.21;55.17;98771.75;8336351;28;20615;-69
2021/01/16 03:10:24;;;;;;;14.13;12.73;;;;;;;3.34;55.37;98775.16;8335540;28;20542;-69
2021/01/16 03:14:34;;;;;;;14.30;12.63;;;;;;;3.42;54.95;98772.56;8335283;28;20227;-69
2021/01/16 03:18:40;;;;;;;13.63;11.63;;;;;;;3.54;54.84;98767.38;8335444;28;20204;-69
2021/01/16 03:22:42;;;;;;;14.53;13.03;;;;;;;3.36;55.10;98768.31;8335749;28;20239;-69
2021/01/16 03:26:43;;;;;;;14.80;13.30;;;;;;;2.98;56.59;98765.81;8335058;28;20215;-69
2021/01/16 03:30:45;;;;;;;15.03;13.43;;;;;;;3.33;55.36;98765.75;8335093;28;20227;-69
2021/01/16 03:34:49;;;;;;;15.23;13.27;;;;;;;3.30;55.25;98760.66;8335654;28;20243;-69
2021/01/16 03:38:51;;;;;;;14.50;13.00;;;;;;;3.37;55.68;98764.91;8334753;28;20200;-69
2021/01/16 03:42:52;;;;;;;14.90;13.27;;;;;;;3.28;55.60;98762.38;8333944;28;20205;-70
2021/01/16 03:46:54;;;;;;;14.13;12.33;;;;;;;3.18;55.96;98760.66;8334297;28;20555;-69
2021/01/16 03:50:57;;;;;;;15.00;13.40;;;;;;;3.14;55.76;98762.38;8334761;28;20204;-70
2021/01/16 03:54:59;;;;;;;16.77;13.60;;;;;;;3.19;55.75;98772.63;8334305;28;20212;-69
2021/01/16 03:59:01;;;;;;;14.33;12.83;;;;;;;3.18;55.79;98776.91;8334587;28;20208;-69
2021/01/16 04:03:03;;;;;;;14.20;12.77;;;;;;;3.37;55.64;98769.16;8334462;28;20327;-69
2021/01/16 04:07:07;;;;;;;16.03;13.07;;;;;;;3.42;55.35;98773.41;8334192;28;20243;-69
2021/01/16 04:11:09;;;;;;;15.03;13.53;;;;;;;3.21;55.58;98765.78;8333986;28;20574;-69
2021/01/16 04:15:13;;;;;;;14.77;13.23;;;;;;;3.30;55.55;98771.72;8333668;28;20204;-69
2021/01/16 04:19:15;;;;;;;15.23;13.73;;;;;;;3.33;55.78;98761.50;8333770;28;20224;-70
2021/01/16 04:23:17;;;;;;;15.10;13.50;;;;;;;3.35;55.94;98765.75;8333419;28;20211;-69
2021/01/16 04:27:21;;;;;;;15.47;13.80;;;;;;;3.39;55.83;98768.31;8333461;28;20557;-69
2021/01/16 04:31:23;;;;;;;14.57;13.07;;;;;;;3.39;56.05;98772.56;8333031;28;20338;-69
2021/01/16 04:35:25;;;;;;;15.20;13.33;;;;;;;3.29;56.38;98774.28;8333459;28;20243;-69
2021/01/16 04:39:28;;;;;;;15.23;13.77;;;;;;;3.44;55.97;98769.13;8332807;28;20225;-70
2021/01/16 04:43:29;;;;;;;15.10;13.50;;;;;;;3.35;56.01;98760.63;8332507;28;20201;-69
2021/01/16 04:47:32;;;;;;;14.63;13.13;;;;;;;3.34;56.07;98767.47;8333130;28;20208;-70
2021/01/16 04:51:36;;;;;;;14.70;13.27;;;;;;;3.36;55.49;98763.19;8332413;28;20208;-69
2021/01/16 04:55:38;;;;;;;14.40;12.90;;;;;;;3.23;54.88;98759.78;8332451;28;20710;-70
2021/01/16 04:59:40;;;;;;;13.70;12.17;;;;;;;3.33;54.43;98768.31;8332358;28;20224;-69
2021/01/16 05:03:43;;;;;;;12.93;11.43;;;;;;;3.30;53.64;98768.31;8332174;28;20208;-69
2021/01/16 05:07:46;;;;;;;11.90;10.73;;;;;;;3.24;54.66;98769.19;8332198;28;20219;-69
2021/01/16 05:12:00;;;;;;;12.87;11.20;;;;;;;3.25;54.05;98768.31;8332154;28;20200;-69
2021/01/16 05:16:03;;;;;;;12.53;11.23;;;;;;;3.31;53.99;98768.34;8331707;28;20284;-69
2021/01/16 05:20:06;;;;;;;11.73;10.53;;;;;;;3.08;54.12;98762.38;8331843;28;20687;-69
2021/01/16 05:24:08;;;;;;;12.83;11.57;;;;;;;3.15;54.08;98758.13;8332021;28;20800;-70
2021/01/16 05:28:12;;;;;;;12.47;11.27;;;;;;;3.20;54.08;98766.63;8330571;28;20597;-69
2021/01/16 05:32:14;;;;;;;12.70;11.40;;;;;;;3.18;53.95;98764.09;8330588;28;20224;-69
2021/01/16 05:36:17;;;;;;;12.47;11.17;;;;;;;3.24;53.94;98770.91;8330529;28;20204;-69
2021/01/16 05:40:19;;;;;;;12.10;10.53;;;;;;;3.11;53.70;98764.94;8331338;28;20220;-70
2021/01/16 05:44:22;;;;;;;11.63;10.43;;;;;;;2.85;53.24;98759.84;8331898;28;20655;-70
2021/01/16 05:48:25;;;;;;;11.60;10.40;;;;;;;2.97;52.91;98764.09;8331036;28;20636;-70
2021/01/16 05:52:27;;;;;;;10.63;9.53;;;;;;;2.94;52.65;98764.97;8330317;28;20205;-70
2021/01/16 05:56:31;;;;;;;12.17;9.60;;;;;;;2.95;52.14;98766.66;8330853;28;20213;-70
2021/01/16 06:00:39;;;;;;;11.27;10.17;;;;;;;2.94;52.14;98772.66;8330316;28;20228;-70
2021/01/16 06:04:46;;;;;;;11.43;10.33;;;;;;;3.03;51.91;98769.25;8330371;28;20204;-70
2021/01/16 06:08:49;;;;;;;12.13;10.90;;;;;;;2.96;51.92;98765.81;8329805;28;20533;-70
2021/01/16 06:12:52;;;;;;;11.87;10.73;;;;;;;3.02;51.67;98770.91;8329908;28;20551;-70
2021/01/16 06:16:55;;;;;;;12.97;11.53;;;;;;;2.96;51.62;98773.50;8329852;28;20204;-70
2021/01/16 06:20:57;;;;;;;11.43;10.33;;;;;;;2.84;52.14;98779.47;8330152;28;20235;-70
2021/01/16 06:24:59;;;;;;;10.67;9.57;;;;;;;2.89;52.07;98779.47;8329948;28;20559;-70
2021/01/16 06:29:03;;;;;;;10.90;9.80;;;;;;;2.76;51.54;98781.19;8329848;28;20196;-70
2021/01/16 06:33:06;;;;;;;11.20;10.10;;;;;;;2.92;51.50;98767.53;8329705;28;20412;-70
2021/01/16 06:37:09;;;;;;;10.97;9.67;;;;;;;2.74;52.39;98777.75;8329867;28;20196;-69
2021/01/16 06:41:13;;;;;;;12.13;10.93;;;;;;;2.87;52.05;98766.66;8329576;28;20228;-69
2021/01/16 06:45:15;;;;;;;11.30;10.20;;;;;;;3.01;51.16;98765.78;8330008;28;20693;-70
2021/01/16 06:49:22;;;;;;;12.37;11.07;;;;;;;3.09;51.56;98761.53;8329714;28;20648;-71
2021/01/16 06:53:25;;;;;;;10.97;9.97;;;;;;;2.92;52.20;98769.25;8329319;28;20196;-70
2021/01/16 06:57:27;;;;;;;12.00;10.70;;;;;;;3.02;51.42;98762.41;8329747;28;20231;-70
2021/01/16 07:01:30;;;;;;;11.33;10.13;;;;;;;2.97;51.89;98771.78;8330017;28;20232;-70
2021/01/16 07:05:34;;;;;;;11.77;10.57;;;;;;;3.07;52.29;98760.69;8329182;28;20200;-70
2021/01/16 07:09:37;;;;;;;12.07;10.90;;;;;;;2.90;51.87;98761.56;8329465;28;20733;-70
2021/01/16 07:13:42;;;;;;;12.40;10.80;;;;;;;2.85;51.97;98762.41;8327076;28;20212;-70
2021/01/16 07:17:45;;;;;;;12.63;10.50;;;;;;;3.07;51.51;98768.38;8330249;28;20192;-70
2021/01/16 07:21:48;;;;;;;11.03;9.93;;;;;;;3.12;51.34;98771.75;8335084;28;20225;-70
2021/01/16 07:25:51;;;;;;;10.93;9.83;;;;;;;3.13;51.86;98768.34;8334946;28;20212;-70
2021/01/16 07:29:56;;;;;;;11.23;10.10;;;;;;;3.07;50.96;98758.97;8334439;28;20212;-70
2021/01/16 07:33:58;;;;;;;10.17;9.17;;;;;;;3.09;50.85;98758.97;8334891;28;20631;-70
2021/01/16 07:38:03;;;;;;;11.27;10.07;;;;;;;3.08;50.58;98758.09;8334379;28;20217;-70
2021/01/16 07:42:10;;;;;;;10.90;9.80;;;;;;;2.81;50.79;98764.13;8334194;28;20220;-70
2021/01/16 07:46:12;;;;;;;10.43;9.33;;;;;;;2.89;50.49;98757.31;8333852;28;20192;-70
2021/01/16 07:50:20;;;;;;;10.87;9.77;;;;;;;2.91;51.22;98758.16;8333838;28;20212;-70
2021/01/16 07:54:23;;;;;;;11.00;9.77;;;;;;;3.06;50.34;98764.09;8334175;28;20710;-70
2021/01/16 07:58:30;;;;;;;11.67;9.67;;;;;;;2.75;50.49;98761.56;8333869;28;20207;-70
2021/01/16 08:02:33;;;;;;;11.30;10.13;;;;;;;2.78;51.00;98756.47;8334134;28;20510;-70
2021/01/16 08:06:47;;;;;;;11.33;10.13;;;;;;;3.01;50.06;98765.78;8333799;28;20210;-70
2021/01/16 08:10:54;;;;;;;10.67;9.43;;;;;;;3.11;50.11;98764.94;8333927;28;20211;-70
2021/01/16 08:15:01;;;;;;;11.23;9.97;;;;;;;2.98;50.03;98760.72;8333789;28;20212;-70
2021/01/16 08:19:24;;;;;;;10.00;9.00;;;;;;;2.96;49.66;98764.97;8333244;28;20278;-70
2021/01/16 08:23:28;;;;;;;10.93;9.73;;;;;;;3.00;49.68;98764.97;8333579;28;20656;-70
2021/01/16 08:27:32;;;;;;;11.13;9.87;;;;;;;2.84;50.09;98764.13;8332292;28;20223;-70
2021/01/16 08:31:34;;;;;;;12.50;9.93;;;;;;;2.93;50.03;98764.13;8331272;28;20316;-70
2021/01/16 08:35:43;;;;;;;11.07;9.47;;;;;;;3.10;50.10;98765.78;8328478;28;20211;-70
2021/01/16 08:39:44;;;;;;;10.70;9.57;;;;;;;3.15;50.23;98763.25;8331656;28;20189;-69
2021/01/16 08:43:52;;;;;;;13.30;10.50;;;;;;;3.17;50.20;98762.38;8332118;28;20660;-70
2021/01/16 08:47:55;;;;;;;11.30;9.03;;;;;;;3.33;50.15;98758.94;8330082;28;20188;-69
2021/01/16 08:51:58;;;;;;;12.43;10.93;;;;;;;3.22;50.43;98758.09;8331321;28;20220;-69
2021/01/16 08:56:22;;;;;;;11.03;9.93;;;;;;;3.29;50.08;98767.50;8331584;28;20201;-69
2021/01/16 09:00:25;;;;;;;10.70;9.60;;;;;;;3.19;50.36;98763.22;8329771;28;20211;-69
2021/01/16 09:04:31;;;;;;;12.70;10.63;;;;;;;3.16;50.25;98765.81;8331147;28;20226;-69
2021/01/16 09:08:32;;;;;;;12.50;11.20;;;;;;;3.29;50.69;98767.50;8332227;28;20205;-69
2021/01/16 09:12:40;;;;;;;12.50;11.30;;;;;;;3.31;50.63;98770.00;8331698;28;20556;-69
2021/01/16 09:16:43;;;;;;;11.70;10.50;;;;;;;3.49;50.48;98774.25;8330291;28;20197;-69
2021/01/16 09:20:46;;;;;;;12.67;11.37;;;;;;;3.49;50.51;98776.81;8331149;28;20220;-69
2021/01/16 09:24:48;;;;;;;14.00;11.40;;;;;;;3.42;50.50;98768.28;8329917;28;20193;-69
2021/01/16 09:28:51;;;;;;;12.43;11.17;;;;;;;3.60;50.37;98763.94;8327786;28;20271;-69
2021/01/16 09:32:54;;;;;;;12.87;11.50;;;;;;;3.63;50.30;98767.34;8330657;28;20538;-69
2021/01/16 09:36:56;;;;;;;14.37;12.43;;;;;;;3.51;50.80;98772.53;8330113;28;20204;-69
2021/01/16 09:40:58;;;;;;;15.63;13.40;;;;;;;3.34;51.28;98787.94;8329620;28;20297;-69
2021/01/16 09:45:00;;;;;;;19.57;16.93;;;;;;;3.33;51.87;98774.28;8329067;28;20200;-69
2021/01/16 09:49:03;;;;;;;14.43;12.60;;;;;;;3.41;51.63;98769.16;8330371;28;20565;-69
2021/01/16 09:53:05;;;;;;;13.70;12.30;;;;;;;3.77;50.94;98766.47;8330443;28;20204;-69
2021/01/16 09:57:07;;;;;;;15.37;13.50;;;;;;;4.01;50.60;98765.50;8329342;28;20208;-69
2021/01/16 10:01:21;;;;;;;16.83;15.10;;;;;;;3.77;51.08;98766.47;8328613;28;20224;-69
2021/01/16 10:05:29;;;;;;;14.30;12.73;;;;;;;3.62;49.61;98764.84;8327412;28;20255;-70
2021/01/16 10:09:41;;;;;;;13.27;12.00;;;;;;;3.61;48.87;98756.28;8329887;28;20659;-70
2021/01/16 10:13:43;;;;;;;13.63;12.13;;;;;;;3.69;47.12;98751.13;8329807;28;20201;-70
2021/01/16 10:17:46;;;;;;;11.43;10.23;;;;;;;3.76;46.90;98755.38;8330172;28;20299;-70
2021/01/16 10:21:55;;;;;;;13.80;12.43;;;;;;;3.75;46.31;98752.81;8329470;28;20224;-69
2021/01/16 10:26:01;;;;;;;16.73;14.50;;;;;;;3.66;46.32;98746.03;8329310;28;20204;-69
2021/01/16 10:30:05;;;;;;;11.80;10.60;;;;;;;3.59;46.24;98742.63;8328798;28;20536;-70
2021/01/16 10:34:10;;;;;;;11.97;10.77;;;;;;;3.53;46.30;98737.53;8329307;28;20239;-69
2021/01/16 10:38:37;;;;;;;12.03;10.83;;;;;;;3.66;45.95;98734.06;8329095;28;20223;-70
2021/01/16 10:42:41;;;;;;;11.60;10.47;;;;;;;3.44;46.71;98735.84;8323969;28;20702;-69
2021/01/16 10:46:45;;;;;;;11.70;10.60;;;;;;;3.60;45.96;98728.09;8328572;28;20683;-70
2021/01/16 10:50:48;;;;;;;10.87;9.87;;;;;;;3.58;45.61;98720.44;8328582;28;20251;-69
2021/01/16 10:54:58;;;;;;;11.50;10.40;;;;;;;3.63;44.78;98710.16;8332827;28;20208;-69
2021/01/16 10:59:10;;;;;;;10.60;9.60;;;;;;;3.40;45.06;98708.53;8333929;28;20185;-69
2021/01/16 11:03:17;;;;;;;10.33;9.23;;;;;;;3.14;45.41;98711.19;8330124;28;20706;-69
2021/01/16 11:07:27;;;;;;;10.80;9.80;;;;;;;3.04;45.74;98696.72;8335025;28;20207;-69
2021/01/16 11:11:30;;;;;;;11.20;10.03;;;;;;;3.33;45.40;98692.38;8334860;28;20249;-69
2021/01/16 11:15:37;;;;;;;11.07;9.40;;;;;;;3.40;46.01;98695.75;8335301;28;20291;-69
2021/01/16 11:19:39;;;;;;;9.93;9.03;;;;;;;3.09;45.45;98689.88;8335055;28;20201;-69
2021/01/16 11:23:58;;;;;;;10.57;9.57;;;;;;;3.24;45.79;98681.31;8334181;28;20573;-69
2021/01/16 11:28:08;;;;;;;10.57;9.47;;;;;;;3.32;45.30;98682.13;8334580;28;20205;-69
2021/01/16 11:32:14;;;;;;;10.67;9.67;;;;;;;3.37;45.72;98682.09;8333529;28;20603;-69
2021/01/16 11:36:19;;;;;;;11.60;9.50;;;;;;;3.42;45.31;98676.09;8334057;28;20656;-69
2021/01/16 11:40:22;;;;;;;10.27;9.27;;;;;;;3.15;45.61;98681.34;8334498;28;20698;-69
2021/01/16 11:44:49;;;;;;;11.47;10.10;;;;;;;3.32;45.18;98675.28;8334616;28;20215;-69
2021/01/16 11:48:51;;;;;;;10.40;9.50;;;;;;;3.27;45.71;98660.81;8333508;28;20209;-69
2021/01/16 11:52:53;;;;;;;10.93;9.93;;;;;;;3.11;46.34;98652.34;8333513;28;20204;-69
2021/01/16 11:56:55;;;;;;;9.90;8.90;;;;;;;3.38;45.42;98651.38;8333396;28;20565;-69
2021/01/16 12:01:00;;;;;;;9.73;8.27;;;;;;;3.28;45.69;98642.03;8333507;28;20225;-69
2021/01/16 12:05:02;;;;;;;9.60;8.60;;;;;;;3.48;45.46;98634.25;8331883;28;20284;-69
2021/01/16 12:09:05;;;;;;;9.80;8.83;;;;;;;3.78;44.92;98628.09;8333415;28;20513;-69
2021/01/16 12:13:10;;;;;;;10.03;9.00;;;;;;;3.77;44.68;98626.41;8333252;28;20212;-69
2021/01/16 12:17:15;;;;;;;11.53;9.70;;;;;;;3.30;45.17;98630.09;8332625;28;20195;-69
2021/01/16 12:21:17;;;;;;;13.63;12.23;;;;;;;3.59;44.98;98619.69;8332396;28;20228;-69
2021/01/16 12:25:18;;;;;;;10.93;9.83;;;;;;;3.26;45.37;98618.16;8332554;28;20670;-69
2021/01/16 12:29:23;;;;;;;12.33;11.13;;;;;;;3.25;45.04;98608.75;8331597;28;20204;-69
2021/01/16 12:33:25;;;;;;;18.57;16.57;;;;;;;3.46;44.76;98600.13;8331692;28;20715;-69
2021/01/16 12:37:29;;;;;;;16.17;11.00;;;;;;;4.73;71.94;98603.38;8332944;28;20712;-69
2021/01/16 12:41:33;;;;;;;15.17;11.63;;;;;;;7.95;50.53;98587.59;8332128;28;20698;-68
2021/01/16 12:45:35;;;;;;;14.23;11.63;;;;;;;8.33;42.17;98581.50;8332185;28;20636;-69
2021/01/16 12:49:38;;;;;;;10.30;9.30;;;;;;;6.73;38.06;98586.75;8332168;28;20216;-70
2021/01/16 12:53:41;;;;;;;11.03;8.80;;;;;;;5.17;40.03;98573.75;8331132;28;20208;-69
2021/01/16 12:57:44;;;;;;;10.23;9.23;;;;;;;4.69;41.96;98574.31;8330256;28;20287;-69
2021/01/16 13:01:48;;;;;;;8.93;8.13;;;;;;;4.79;42.12;98577.63;8331843;28;20231;-70
2021/01/16 13:05:51;;;;;;;9.70;8.57;;;;;;;4.82;43.98;98566.50;8331304;28;20206;-69
2021/01/16 13:09:57;;;;;;;10.60;8.97;;;;;;;4.38;42.15;98565.22;8331470;28;20209;-69
2021/01/16 13:14:00;;;;;;;9.03;8.10;;;;;;;4.04;42.66;98568.97;8331348;28;20204;-69
2021/01/16 13:18:03;;;;;;;10.20;8.83;;;;;;;4.16;43.83;98560.31;8330787;28;20205;-69
2021/01/16 13:22:06;;;;;;;9.23;8.33;;;;;;;3.90;43.46;98548.59;8331032;28;20561;-69
2021/01/16 13:26:08;;;;;;;10.00;9.00;;;;;;;3.54;43.68;98549.69;8330641;28;20219;-69
2021/01/16 13:30:12;;;;;;;10.03;9.03;;;;;;;3.40;44.57;98551.50;8331734;28;20205;-69
2021/01/16 13:34:15;;;;;;;10.67;9.63;;;;;;;3.52;45.25;98538.59;8336537;28;20236;-69
2021/01/16 13:38:18;;;;;;;11.03;9.13;;;;;;;2.87;45.25;98556.88;8349321;28;20488;-68
2021/01/16 13:42:24;;;;;;;10.10;9.10;;;;;;;3.58;50.69;98553.09;8363362;28;20260;-70
2021/01/16 13:46:38;;;;;;;11.87;9.47;;;;;;;3.25;45.23;98552.44;8340177;28;20507;-70
2021/01/16 13:50:40;;;;;;;14.80;9.70;;;;;;;3.15;45.87;98546.53;8328241;28;20629;-69
2021/01/16 13:54:45;;;;;;;10.87;9.77;;;;;;;3.10;45.51;98545.69;8328882;28;20276;-70
2021/01/16 13:58:47;;;;;;;12.87;9.73;;;;;;;3.12;45.08;98543.97;8329983;28;20208;-69
2021/01/16 14:02:52;;;;;;;14.27;9.73;;;;;;;3.29;45.63;98544.75;8329686;28;20235;-70
2021/01/16 14:06:55;;;;;;;10.43;9.33;;;;;;;2.92;46.62;98541.53;8329888;28;20219;-70
2021/01/16 14:11:03;;;;;;;12.83;9.97;;;;;;;3.18;45.34;98546.53;8330093;28;20239;-68
2021/01/16 14:15:06;;;;;;;12.13;10.17;;;;;;;2.91;46.19;98553.47;8328497;28;20214;-69
2021/01/16 14:19:13;;;;;;;10.57;9.43;;;;;;;3.11;45.16;98549.97;8328686;28;20201;-69
2021/01/16 14:23:26;;;;;;;12.30;9.33;;;;;;;2.58;46.23;98548.47;8328561;28;20244;-69
2021/01/16 14:27:40;;;;;;;15.00;10.57;;;;;;;2.87;45.86;98563.72;8327268;28;20251;-69
2021/01/16 14:31:45;;;;;;;10.93;9.80;;;;;;;2.72;46.75;98550.13;8322816;28;20236;-69
2021/01/16 14:35:47;;;;;;;12.87;9.97;;;;;;;2.61;46.70;98551.88;8328954;28;20216;-69
2021/01/16 14:39:49;;;;;;;12.27;10.40;;;;;;;2.62;46.99;98548.44;8329114;28;20204;-69
2021/01/16 14:43:59;;;;;;;10.70;9.60;;;;;;;2.69;46.11;98545.03;8327718;28;20216;-70
2021/01/16 14:48:11;;;;;;;9.87;8.87;;;;;;;2.56;45.67;98530.56;8329362;28;20197;-70
2021/01/16 14:52:15;;;;;;;9.03;8.13;;;;;;;2.48;45.48;98530.59;8332003;28;20205;-71
2021/01/16 14:56:18;;;;;;;8.83;7.90;;;;;;;2.32;45.25;98534.03;8334022;28;20205;-70
2021/01/16 15:00:27;;;;;;;9.17;8.30;;;;;;;2.66;45.54;98537.34;8330278;28;20231;-70
2021/01/16 15:04:29;;;;;;;8.13;7.33;;;;;;;2.68;45.40;98535.63;8329474;28;20250;-70
2021/01/16 15:08:32;;;;;;;9.33;8.43;;;;;;;2.59;45.38;98533.13;8329510;28;20201;-69
2021/01/16 15:12:35;;;;;;;8.93;7.03;;;;;;;2.08;45.93;98524.72;8328372;28;20208;-67
2021/01/16 15:16:40;;;;;;;7.50;6.80;;;;;;;2.23;45.32;98536.59;8328884;28;20221;-70
2021/01/16 15:20:43;;;;;;;7.93;7.03;;;;;;;2.20;45.47;98542.59;8328782;28;20235;-70
2021/01/16 15:24:45;;;;;;;7.20;6.50;;;;;;;2.37;45.05;98537.44;8328936;28;20211;-70
2021/01/16 15:28:47;;;;;;;6.87;6.17;;;;;;;2.36;44.78;98528.06;8328383;28;20271;-71
2021/01/16 15:33:00;;;;;;;11.90;6.47;;;;;;;2.29;45.14;98534.91;8328522;28;20331;-70
2021/01/16 15:37:04;;;;;;;6.37;5.77;;;;;;;1.96;45.83;98533.22;8328581;28;20517;-70
2021/01/16 15:41:06;;;;;;;7.97;6.78;;;;;;;2.48;44.14;98527.19;8331894;28;20435;-71
2021/01/16 15:45:10;;;;;;;7.50;6.03;;;;;;;2.24;44.78;98516.16;8334164;28;20211;-70
2021/01/16 15:49:12;;;;;;;11.50;6.40;;;;;;;2.23;44.49;98518.72;8333282;28;20681;-70
2021/01/16 15:53:20;;;;;;;6.43;5.83;;;;;;;2.45;44.55;98527.19;8333651;28;20510;-71
2021/01/16 15:57:22;;;;;;;15.57;13.93;;;;;;;2.49;44.67;98516.09;8332399;28;20200;-70
2021/01/16 16:01:24;;;;;;;22.83;18.30;;;;;;;2.58;43.95;98517.78;8333734;28;20544;-70
2021/01/16 16:05:27;;;;;;;28.30;23.23;;;;;;;2.53;44.15;98513.53;8333915;28;20200;-70
2021/01/16 16:09:29;;;;;;;17.57;15.53;;;;;;;2.60;44.21;98508.41;8332851;28;20270;-71
2021/01/16 16:13:33;;;;;;;14.60;10.97;;;;;;;2.65;44.27;98494.75;8332792;28;20211;-71
2021/01/16 16:17:35;;;;;;;14.43;11.43;;;;;;;2.53;44.05;98497.31;8332743;28;20204;-70
2021/01/16 16:21:37;;;;;;;32.63;22.50;;;;;;;2.62;44.15;98481.97;8333053;28;20453;-71
2021/01/16 16:25:40;;;;;;;39.03;28.13;;;;;;;2.66;43.61;98488.75;8333467;28;20224;-70
2021/01/16 16:29:41;;;;;;;35.80;25.40;;;;;;;2.57;43.79;98482.84;8332958;28;20204;-70
2021/01/16 16:33:43;;;;;;;42.40;29.30;;;;;;;2.58;43.78;98482.00;8333485;28;20240;-70
2021/01/16 16:37:50;;;;;;;14.93;11.07;;;;;;;2.06;43.45;98483.00;8333262;28;20605;-70
2021/01/16 16:41:51;;;;;;;14.80;11.03;;;;;;;2.45;43.05;98478.63;8332413;28;20347;-70
2021/01/16 16:45:53;;;;;;;55.80;34.70;;;;;;;2.58;42.88;98462.38;8332396;28;20517;-70
2021/01/16 16:49:55;;;;;;;12.57;9.80;;;;;;;2.51;43.26;98459.00;8337914;28;20200;-69
2021/01/16 16:53:58;;;;;;;56.90;40.77;;;;;;;2.52;43.63;98460.69;8340383;28;20220;-71
2021/01/16 16:58:00;;;;;;;13.23;9.13;;;;;;;2.57;43.04;98460.69;8331665;28;20255;-69
2021/01/16 17:02:02;;;;;;;59.20;42.07;;;;;;;2.62;43.69;98464.06;8331226;28;20296;-69
2021/01/16 17:06:05;;;;;;;119.47;79.47;;;;;;;2.54;43.14;98448.75;8331427;28;20201;-71
2021/01/16 17:10:10;;;;;;;106.30;68.20;;;;;;;2.56;43.54;98441.06;8331077;28;20211;-70
2021/01/16 17:14:12;;;;;;;40.33;30.70;;;;;;;2.49;43.07;98445.34;8328935;28;20597;-66
2021/01/16 17:18:15;;;;;;;10.90;9.80;;;;;;;2.51;43.02;98441.13;8329174;28;20189;-66
2021/01/16 17:22:18;;;;;;;26.57;22.67;;;;;;;2.61;43.00;98448.72;8328780;28;20220;-65
2021/01/16 17:26:21;;;;;;;7.07;6.37;;;;;;;2.50;43.75;98449.63;8328780;28;20207;-65
2021/01/16 17:30:23;;;;;;;5.20;4.70;;;;;;;2.56;43.30;98437.69;8330751;28;20204;-65
2021/01/16 17:34:24;;;;;;;7.53;6.83;;;;;;;2.59;43.28;98445.31;8331118;28;20232;-65
2021/01/16 17:38:26;;;;;;;7.60;6.90;;;;;;;2.63;43.61;98441.91;8330668;28;20201;-65
2021/01/16 17:42:34;;;;;;;5.60;4.87;;;;;;;2.50;42.47;98431.72;8330053;28;20231;-65
2021/01/16 17:46:37;;;;;;;7.57;6.03;;;;;;;2.49;42.41;98426.63;8329873;28;20192;-66
2021/01/16 17:50:40;;;;;;;6.07;5.07;;;;;;;2.43;42.18;98424.09;8329015;28;20684;-65
2021/01/16 17:54:45;;;;;;;9.90;8.80;;;;;;;2.57;42.03;98413.78;8329879;28;20201;-65
2021/01/16 17:58:49;;;;;;;11.13;9.93;;;;;;;2.55;42.33;98413.78;8330308;28;20220;-64
2021/01/16 18:02:57;;;;;;;13.13;10.53;;;;;;;2.46;42.36;98414.72;8329171;28;20327;-65
2021/01/16 18:07:02;;;;;;;12.60;10.13;;;;;;;2.53;42.93;98408.72;8357731;23;20233;-77
2021/01/16 18:11:04;;;;;;;10.70;8.13;;;;;;;2.62;41.98;98412.06;8300776;28;20205;-78
2021/01/16 18:15:08;;;;;;;8.43;7.50;;;;;;;2.59;42.59;98404.41;8301180;28;20205;-78
2021/01/16 18:19:10;;;;;;;7.83;7.03;;;;;;;2.45;41.77;98400.22;8299660;28;20197;-78
2021/01/16 18:23:11;;;;;;;7.33;6.63;;;;;;;2.47;41.99;98400.22;8299682;28;20220;-77
2021/01/16 18:27:13;;;;;;;7.27;6.57;;;;;;;2.34;41.80;98395.16;8299103;28;20563;-78
2021/01/16 18:31:15;;;;;;;8.50;7.60;;;;;;;2.40;42.01;98396.84;8302523;28;20217;-79
2021/01/16 18:35:18;;;;;;;11.53;9.03;;;;;;;2.40;42.82;98391.75;8305724;28;20279;-78
2021/01/16 18:39:21;;;;;;;12.03;9.60;;;;;;;2.45;42.79;98394.25;8299211;28;20575;-77
2021/01/16 18:43:22;;;;;;;10.37;8.73;;;;;;;2.48;43.18;98387.44;8299198;28;20221;-78
2021/01/16 18:47:25;;;;;;;10.47;7.83;;;;;;;2.47;42.20;98378.03;8300275;28;20201;-78
2021/01/16 18:51:27;;;;;;;10.73;9.40;;;;;;;2.07;42.43;98375.66;8296875;28;20212;-78
2021/01/16 18:55:29;;;;;;;10.47;7.87;;;;;;;1.75;43.65;98365.56;8286191;28;20308;-78
2021/01/16 18:59:31;;;;;;;8.10;7.00;;;;;;;1.88;43.66;98368.94;8283664;28;20228;-78
2021/01/16 19:03:35;;;;;;;7.93;6.83;;;;;;;2.08;42.72;98363.75;8296985;28;20639;-78
2021/01/16 19:07:37;;;;;;;13.90;11.43;;;;;;;2.23;43.07;98370.50;8281617;28;20234;-78